createdAt,value
2022-09-02T03:35:47.254Z,7.05
2022-09-02T03:37:49.693Z,6.70
2022-09-02T03:39:51.751Z,11.50
2022-09-02T03:41:54.221Z,6.63
2022-09-02T03:43:56.292Z,5.93
2022-09-02T03:45:58.765Z,6.72
2022-09-02T03:48:00.860Z,5.43
2022-09-02T03:50:03.670Z,8.18
2022-09-02T03:54:08.033Z,4.63
2022-09-02T03:56:14.305Z,5.55
2022-09-02T03:58:16.320Z,6.50
2022-09-02T04:00:20.191Z,4.03
2022-09-02T04:02:22.423Z,6.15
2022-09-02T04:04:24.549Z,6.20
2022-09-02T04:06:32.446Z,4.72
2022-09-02T04:08:35.029Z,7.00
2022-09-02T04:10:38.097Z,5.47
2022-09-02T04:12:40.379Z,11.50
2022-09-02T04:14:42.557Z,6.65
2022-09-02T04:16:44.590Z,8.57
2022-09-02T04:18:46.719Z,6.90
2022-09-02T04:20:48.715Z,4.72
2022-09-02T04:22:50.844Z,7.93
2022-09-02T04:24:52.871Z,10.82
2022-09-02T04:26:54.877Z,7.78
2022-09-02T04:28:56.928Z,5.95
2022-09-02T04:30:58.981Z,8.77
2022-09-02T04:33:01.052Z,7.88
2022-09-02T04:35:03.552Z,7.50
2022-09-02T04:37:05.589Z,6.32
2022-09-02T04:39:09.444Z,8.77
2022-09-02T04:41:17.757Z,6.70
2022-09-02T04:43:19.936Z,9.57
2022-09-02T04:45:23.131Z,6.35
2022-09-02T04:47:26.706Z,17.08
2022-09-02T04:49:32.164Z,11.02
2022-09-02T04:51:34.221Z,17.95
2022-09-02T04:53:36.346Z,18.73
2022-09-02T04:55:41.929Z,10.75
2022-09-02T04:57:43.907Z,11.13
2022-09-02T04:59:45.967Z,9.38
2022-09-02T05:01:48.229Z,9.27
2022-09-02T05:03:51.894Z,19.50
2022-09-02T05:06:05.893Z,17.55
2022-09-02T05:08:08.035Z,10.23
2022-09-02T05:10:10.122Z,22.52
2022-09-02T05:12:12.133Z,12.02
2022-09-02T05:14:15.044Z,8.80
2022-09-02T05:16:30.890Z,15.38
2022-09-02T05:18:32.930Z,14.73
2022-09-02T05:20:34.966Z,33.25
2022-09-02T05:22:37.077Z,22.80
2022-09-02T05:24:39.067Z,23.20
2022-09-02T05:26:44.853Z,32.92
2022-09-02T05:28:46.854Z,26.27
2022-09-02T05:30:48.924Z,13.82
2022-09-02T05:32:50.946Z,20.75
2022-09-02T05:34:53.608Z,16.65
2022-09-02T05:36:55.663Z,15.38
2022-09-02T05:38:57.686Z,19.60
2022-09-02T05:41:00.250Z,21.10
2022-09-02T05:43:02.304Z,27.75
2022-09-02T05:45:05.045Z,16.85
2022-09-02T05:49:09.276Z,18.77
2022-09-02T05:51:11.317Z,13.10
2022-09-02T05:53:14.923Z,21.42
2022-09-02T05:55:17.509Z,19.45
2022-09-02T05:57:20.783Z,16.30
2022-09-02T05:59:23.713Z,20.17
2022-09-02T06:01:25.936Z,12.93
2022-09-02T06:03:28.039Z,14.18
2022-09-02T06:05:30.970Z,17.35
2022-09-02T06:07:32.978Z,19.88
2022-09-02T06:09:35.201Z,16.00
2022-09-02T06:11:40.070Z,16.55
2022-09-02T06:13:42.475Z,16.23
2022-09-02T06:15:44.673Z,24.55
2022-09-02T06:17:46.692Z,24.70
2022-09-02T06:19:48.731Z,23.27
2022-09-02T06:21:55.076Z,24.40
2022-09-02T06:23:57.125Z,20.23
2022-09-02T06:25:59.568Z,15.55
2022-09-02T06:28:06.451Z,14.60
2022-09-02T06:30:10.383Z,18.30
2022-09-02T06:32:12.384Z,17.65
2022-09-02T06:34:16.399Z,21.23
2022-09-02T06:36:19.022Z,18.23
2022-09-02T06:38:21.162Z,13.23
2022-09-02T06:40:23.213Z,16.52
2022-09-02T06:42:27.127Z,10.27
2022-09-02T06:44:29.736Z,19.90
2022-09-02T06:46:37.826Z,15.98
2022-09-02T06:48:39.873Z,10.85
2022-09-02T06:50:44.881Z,16.88
2022-09-02T06:52:46.883Z,10.98
2022-09-02T06:56:53.406Z,8.75
2022-09-02T06:58:55.976Z,21.45
2022-09-02T07:00:58.060Z,48.60
2022-09-02T07:03:18.719Z,10.18
2022-09-02T07:05:20.728Z,5.55
2022-09-02T07:07:22.699Z,10.63
2022-09-02T07:09:31.430Z,8.35
2022-09-02T07:11:33.705Z,8.77
2022-09-02T07:13:35.718Z,8.05
2022-09-02T07:15:37.716Z,8.48
2022-09-02T07:17:39.771Z,14.70
2022-09-02T07:19:41.798Z,7.55
2022-09-02T07:21:43.954Z,24.17
2022-09-02T07:23:45.938Z,7.13
2022-09-02T07:25:48.059Z,8.48
2022-09-02T07:27:51.441Z,5.78
2022-09-02T07:29:54.815Z,3.08
2022-09-02T07:31:56.837Z,4.55
2022-09-02T07:33:59.431Z,2.17
2022-09-02T07:36:01.431Z,3.63
2022-09-02T07:38:04.402Z,8.15
2022-09-02T07:40:07.968Z,17.13
2022-09-02T07:42:10.138Z,4.82
2022-09-02T07:44:12.192Z,8.20
2022-09-02T07:46:14.335Z,7.00
2022-09-02T07:48:16.377Z,7.15
2022-09-02T07:50:21.115Z,5.85
2022-09-02T07:52:23.668Z,4.45
2022-09-02T07:54:26.880Z,7.82
2022-09-02T07:56:29.318Z,10.85
2022-09-02T07:58:32.413Z,15.35
2022-09-02T08:00:34.737Z,5.05
2022-09-02T08:02:36.794Z,3.05
2022-09-02T08:04:38.833Z,4.35
2022-09-02T08:06:40.876Z,3.70
2022-09-02T08:08:43.195Z,4.45
2022-09-02T08:10:45.176Z,6.82
2022-09-02T08:12:47.467Z,7.57
2022-09-02T08:14:49.623Z,10.10
2022-09-02T08:16:52.338Z,1.85
2022-09-02T08:20:56.741Z,3.55
2022-09-02T08:23:10.712Z,3.47
2022-09-02T08:25:14.118Z,2.10
2022-09-02T08:27:16.175Z,1.48
2022-09-02T08:29:18.236Z,1.23
2022-09-02T08:31:20.552Z,1.80
2022-09-02T08:33:22.632Z,1.85
2022-09-02T08:35:24.720Z,2.28
2022-09-02T08:37:27.908Z,2.78
2022-09-02T08:39:29.909Z,3.70
2022-09-02T08:41:52.225Z,4.15
2022-09-02T08:43:57.274Z,3.07
2022-09-02T08:46:02.997Z,0.85
2022-09-02T08:48:27.902Z,5.05
2022-09-02T08:50:30.011Z,5.18
2022-09-02T08:52:40.846Z,1.60
2022-09-02T08:54:56.918Z,5.82
2022-09-02T08:56:59.135Z,1.13
2022-09-02T08:59:03.228Z,2.30
2022-09-02T09:01:17.073Z,1.48
2022-09-02T09:03:34.339Z,1.42
2022-09-02T09:05:47.077Z,2.35
2022-09-02T09:08:00.943Z,4.55
2022-09-02T09:10:54.884Z,1.35
2022-09-02T09:13:25.547Z,3.42
2022-09-02T09:16:01.658Z,2.38
2022-09-02T09:18:08.820Z,1.63
2022-09-02T09:20:22.963Z,3.58
2022-09-02T09:22:39.154Z,5.20
2022-09-02T09:24:44.441Z,2.53
2022-09-02T09:26:47.444Z,4.95
2022-09-02T09:28:50.491Z,3.00
2022-09-02T09:30:52.516Z,2.17
2022-09-02T09:33:00.320Z,1.85
2022-09-02T09:35:11.029Z,2.45
2022-09-02T09:37:13.251Z,2.38
2022-09-02T09:39:31.219Z,1.20
2022-09-02T09:41:33.610Z,5.63
2022-09-02T09:43:35.593Z,2.15
2022-09-02T09:45:41.853Z,9.63
2022-09-02T09:47:43.946Z,2.42
2022-09-02T09:49:52.092Z,1.40
2022-09-02T09:51:57.304Z,2.35
2022-09-02T09:54:16.027Z,1.10
2022-09-02T09:56:18.705Z,1.58
2022-09-02T09:58:26.358Z,1.75
2022-09-02T10:00:32.760Z,1.58
2022-09-02T10:02:36.512Z,2.60
2022-09-02T10:04:43.288Z,1.35
2022-09-02T10:06:48.460Z,4.45
2022-09-02T10:09:05.885Z,1.20
2022-09-02T10:11:08.515Z,1.75
2022-09-02T10:13:34.631Z,0.95
2022-09-02T10:15:48.521Z,2.60
2022-09-02T10:18:07.727Z,1.05
2022-09-02T10:20:17.917Z,1.30
2022-09-02T10:22:58.434Z,1.77
2022-09-02T10:25:45.926Z,1.35
2022-09-02T10:28:27.790Z,2.22
2022-09-02T10:30:37.910Z,1.97
2022-09-02T10:32:53.601Z,2.38
2022-09-02T10:35:34.721Z,2.13
2022-09-02T10:38:32.738Z,1.73
2022-09-02T10:40:38.948Z,3.20
2022-09-02T10:43:05.900Z,1.48
2022-09-02T10:45:24.863Z,1.83
2022-09-02T10:48:13.606Z,1.33
2022-09-02T10:50:50.145Z,1.30
2022-09-02T10:53:20.331Z,1.75
2022-09-02T10:55:41.804Z,1.45
2022-09-02T10:58:08.738Z,2.85
2022-09-02T11:00:18.619Z,1.20
2022-09-02T11:02:39.096Z,2.45
2022-09-02T11:04:54.838Z,5.63
2022-09-02T11:07:04.802Z,1.17
2022-09-02T11:09:23.694Z,1.90
2022-09-02T11:11:37.951Z,2.35
2022-09-02T11:13:47.524Z,1.77
2022-09-02T11:16:06.813Z,2.35
2022-09-02T11:18:35.836Z,1.88
2022-09-02T11:21:19.561Z,2.15
2022-09-02T11:23:50.253Z,9.32
2022-09-02T11:26:25.178Z,1.73
2022-09-02T11:28:54.599Z,3.33
2022-09-02T11:31:06.921Z,1.50
2022-09-02T11:33:23.477Z,1.50
2022-09-02T11:35:34.071Z,2.55
2022-09-02T11:37:50.089Z,1.60
2022-09-02T11:40:11.674Z,1.70
2022-09-02T11:42:30.192Z,1.63
2022-09-02T11:44:52.905Z,1.75
2022-09-02T11:47:26.084Z,1.55
2022-09-02T11:49:51.318Z,2.08
2022-09-02T11:51:57.972Z,1.60
2022-09-02T11:54:04.723Z,1.63
2022-09-02T11:56:19.780Z,1.50
2022-09-02T11:58:41.078Z,1.45
2022-09-02T12:00:58.679Z,1.95
2022-09-02T12:03:11.910Z,1.70
2022-09-02T12:05:30.558Z,3.10
2022-09-02T12:07:34.159Z,1.60
2022-09-02T12:09:47.053Z,1.40
2022-09-02T12:11:50.326Z,1.95
2022-09-02T12:13:52.689Z,3.65
2022-09-02T12:16:15.533Z,2.22
2022-09-02T12:18:31.233Z,1.60
2022-09-02T12:20:41.401Z,1.30
2022-09-02T12:22:43.673Z,1.40
2022-09-02T12:24:59.147Z,1.98
2022-09-02T12:27:08.609Z,3.92
2022-09-02T12:29:31.720Z,1.45
2022-09-02T12:31:43.316Z,1.42
2022-09-02T12:33:52.117Z,0.90
2022-09-02T12:35:54.452Z,5.40
2022-09-02T12:38:12.320Z,1.25
2022-09-02T12:40:16.573Z,1.40
2022-09-02T12:42:28.457Z,1.10
2022-09-02T12:45:02.920Z,2.03
2022-09-02T12:47:24.127Z,2.47
2022-09-02T12:49:54.346Z,2.17
2022-09-02T12:52:09.020Z,5.20
2022-09-02T12:54:11.197Z,5.97
2022-09-02T12:58:15.577Z,3.20
2022-09-02T13:00:58.764Z,4.57
2022-09-02T13:03:25.652Z,3.58
2022-09-02T13:05:50.136Z,5.07
2022-09-02T13:08:50.116Z,1.65
2022-09-02T13:11:52.118Z,2.58
2022-09-02T13:14:31.041Z,2.08
2022-09-02T13:16:41.665Z,3.03
2022-09-02T13:19:02.308Z,3.60
2022-09-02T13:21:46.615Z,3.40
2022-09-02T13:24:29.696Z,1.88
2022-09-02T13:26:55.046Z,1.30
2022-09-02T13:29:11.332Z,2.95
2022-09-02T13:31:26.798Z,0.90
2022-09-02T13:33:28.883Z,6.32
2022-09-02T13:35:30.899Z,1.48
2022-09-02T13:37:36.730Z,2.22
2022-09-02T13:39:40.712Z,0.85
2022-09-02T13:41:42.872Z,1.00
2022-09-02T13:43:45.002Z,1.33
2022-09-02T13:48:01.030Z,1.08
2022-09-02T13:50:03.244Z,4.60
2022-09-02T13:52:07.381Z,1.02
2022-09-02T13:54:24.960Z,1.08
2022-09-02T13:56:30.678Z,3.28
2022-09-02T13:58:37.688Z,2.78
2022-09-02T14:00:41.198Z,5.13
2022-09-02T14:02:58.003Z,2.05
2022-09-02T14:05:07.037Z,1.10
2022-09-02T14:07:09.437Z,0.90
2022-09-02T14:09:22.834Z,4.43
2022-09-02T14:11:24.867Z,1.50
2022-09-02T14:13:27.849Z,2.00
2022-09-02T14:15:31.801Z,2.70
2022-09-02T14:17:36.038Z,1.70
2022-09-02T14:19:38.094Z,1.30
2022-09-02T14:23:53.206Z,1.10
2022-09-02T14:28:00.615Z,0.98
2022-09-02T14:30:05.670Z,1.98
2022-09-02T14:32:15.958Z,2.15
2022-09-02T14:34:41.030Z,6.45
2022-09-02T14:36:43.088Z,3.10
2022-09-02T14:38:47.646Z,3.38
2022-09-02T14:40:49.686Z,1.88
2022-09-02T14:42:57.321Z,1.73
2022-09-02T14:44:59.971Z,3.47
2022-09-02T14:47:06.488Z,2.53
2022-09-02T14:49:10.204Z,2.72
2022-09-02T14:51:12.229Z,1.42
2022-09-02T14:53:19.133Z,1.75
2022-09-02T14:55:56.023Z,1.92
2022-09-02T14:58:04.089Z,2.05
2022-09-02T15:00:11.995Z,3.25
2022-09-02T15:02:34.249Z,4.45
2022-09-02T15:04:36.278Z,2.50
2022-09-02T15:06:38.301Z,1.15
2022-09-02T15:08:40.305Z,3.65
2022-09-02T15:10:43.611Z,2.25
2022-09-02T15:12:52.589Z,1.45
2022-09-02T15:14:54.694Z,3.42
2022-09-02T15:16:56.940Z,1.45
2022-09-02T15:18:59.022Z,1.95
2022-09-02T15:21:01.047Z,6.05
2022-09-02T15:23:03.322Z,3.72
2022-09-02T15:25:08.128Z,1.20
2022-09-02T15:27:11.335Z,1.80
2022-09-02T15:29:13.857Z,1.88
2022-09-02T15:31:16.368Z,1.33
2022-09-02T15:35:20.761Z,1.73
2022-09-02T15:37:22.775Z,2.13
2022-09-02T15:39:26.060Z,1.40
2022-09-02T15:41:31.461Z,1.15
2022-09-02T15:43:34.998Z,1.20
2022-09-02T15:45:49.246Z,1.40
2022-09-02T15:47:51.435Z,3.78
2022-09-02T15:49:53.545Z,2.55
2022-09-02T15:51:55.619Z,2.72
2022-09-02T15:54:02.963Z,2.88
2022-09-02T15:56:05.065Z,3.67
2022-09-02T15:58:07.133Z,1.48
2022-09-02T16:00:10.849Z,2.03
2022-09-02T16:02:13.486Z,1.45
2022-09-02T16:04:15.734Z,4.95
2022-09-02T16:06:17.702Z,4.45
2022-09-02T16:08:19.786Z,2.35
2022-09-02T16:10:21.830Z,1.73
2022-09-02T16:12:25.340Z,2.00
2022-09-02T16:14:28.604Z,2.90
2022-09-02T16:16:31.811Z,2.33
2022-09-02T16:18:34.324Z,2.92
2022-09-02T16:20:36.335Z,1.50
2022-09-02T16:22:38.347Z,3.63
2022-09-02T16:24:40.338Z,2.17
2022-09-02T16:26:42.474Z,1.15
2022-09-02T16:28:45.216Z,1.92
2022-09-02T16:30:47.254Z,2.10
2022-09-02T16:32:51.697Z,0.95
2022-09-02T16:34:55.754Z,1.85
2022-09-02T16:36:57.789Z,0.85
2022-09-02T16:39:03.379Z,4.10
2022-09-02T16:41:05.524Z,2.42
2022-09-02T16:43:08.377Z,3.10
2022-09-02T16:45:10.533Z,5.13
2022-09-02T16:47:13.719Z,1.20
2022-09-02T16:49:18.512Z,1.42
2022-09-02T16:51:20.546Z,2.70
2022-09-02T16:53:22.711Z,1.88
2022-09-02T16:55:24.938Z,2.78
2022-09-02T16:57:26.936Z,1.20
2022-09-02T16:59:29.186Z,2.22
2022-09-02T17:01:32.597Z,1.40
2022-09-02T17:03:34.955Z,3.90
2022-09-02T17:05:36.961Z,2.15
2022-09-02T17:07:38.996Z,1.92
2022-09-02T17:09:41.035Z,2.05
2022-09-02T17:11:45.535Z,3.22
2022-09-02T17:13:52.514Z,5.35
2022-09-02T17:15:54.483Z,1.95
2022-09-02T17:17:56.752Z,1.70
2022-09-02T17:19:58.765Z,4.15
2022-09-02T17:22:00.842Z,1.92
2022-09-02T17:24:04.232Z,2.83
2022-09-02T17:26:06.349Z,6.03
2022-09-02T17:28:08.549Z,1.35
2022-09-02T17:30:11.183Z,3.35
2022-09-02T17:34:15.279Z,1.20
2022-09-02T17:36:17.699Z,1.83
2022-09-02T17:38:22.205Z,8.40
2022-09-02T17:40:44.944Z,6.50
2022-09-02T17:42:46.951Z,2.08
2022-09-02T17:44:48.991Z,3.72
2022-09-02T17:46:51.187Z,1.35
2022-09-02T17:49:15.147Z,2.15
2022-09-02T17:51:15.295Z,2.53
2022-09-02T17:53:23.226Z,1.38
2022-09-02T17:55:25.224Z,2.83
2022-09-02T17:57:42.692Z,1.80
2022-09-02T18:00:07.682Z,1.88
2022-09-02T18:02:34.960Z,2.65
2022-09-02T18:04:48.790Z,8.27
2022-09-02T18:06:50.951Z,1.63
2022-09-02T18:08:56.797Z,3.00
2022-09-02T18:11:03.201Z,2.70
2022-09-02T18:13:08.134Z,2.85
2022-09-02T18:15:12.888Z,3.20
2022-09-02T18:17:27.453Z,3.53
2022-09-02T18:19:38.164Z,2.25
2022-09-02T18:22:21.938Z,7.13
2022-09-02T18:24:43.772Z,3.53
2022-09-02T18:27:23.259Z,6.20
2022-09-02T18:29:47.354Z,4.30
2022-09-02T18:32:10.130Z,1.42
2022-09-02T18:34:54.754Z,2.17
2022-09-02T18:37:33.429Z,1.67
2022-09-02T18:40:24.888Z,6.88
2022-09-02T18:42:47.766Z,3.47
2022-09-02T18:45:08.661Z,2.42
2022-09-02T18:47:32.745Z,3.25
2022-09-02T18:49:35.282Z,3.20
2022-09-02T18:51:41.038Z,4.20
2022-09-02T18:53:57.276Z,2.65
2022-09-02T18:56:05.032Z,2.83
2022-09-02T18:58:34.354Z,6.38
2022-09-02T19:00:56.783Z,4.78
2022-09-02T19:03:01.569Z,3.15
2022-09-02T19:05:07.178Z,7.32
2022-09-02T19:07:30.653Z,7.78
2022-09-02T19:09:32.649Z,5.60
2022-09-02T19:11:36.568Z,2.80
2022-09-02T19:13:53.052Z,9.13
2022-09-02T19:16:02.614Z,2.42
2022-09-02T19:18:06.918Z,10.25
2022-09-02T19:20:09.243Z,4.40
2022-09-02T19:22:11.311Z,3.05
2022-09-02T19:24:32.620Z,4.75
2022-09-02T19:26:34.687Z,5.35
2022-09-02T19:28:36.678Z,4.22
2022-09-02T19:30:39.643Z,6.50
2022-09-02T19:32:44.221Z,6.10
2022-09-02T19:34:46.269Z,4.68
2022-09-02T19:36:49.687Z,6.95
2022-09-02T19:38:51.735Z,7.07
2022-09-02T19:40:54.365Z,5.50
2022-09-02T19:42:57.664Z,4.57
2022-09-02T19:45:00.208Z,2.97
2022-09-02T19:47:49.885Z,9.63
2022-09-02T19:49:24.866Z,3.40
2022-09-02T19:51:27.366Z,4.47
2022-09-02T19:53:32.468Z,4.75
2022-09-02T19:55:34.694Z,5.22
2022-09-02T19:57:37.279Z,5.28
2022-09-02T19:59:39.524Z,5.65
2022-09-02T20:01:41.651Z,6.90
2022-09-02T20:03:44.552Z,2.05
2022-09-02T20:05:49.070Z,3.20
2022-09-02T20:07:51.115Z,3.85
2022-09-02T20:09:53.759Z,4.97
2022-09-02T20:11:55.786Z,2.90
2022-09-02T20:13:58.503Z,4.07
2022-09-02T20:16:01.274Z,3.55
2022-09-02T20:20:18.850Z,6.88
2022-09-02T20:22:21.582Z,4.55
2022-09-02T20:26:50.701Z,4.45
2022-09-02T20:29:18.003Z,5.03
2022-09-02T20:31:40.779Z,4.57
2022-09-02T20:34:06.847Z,2.33
2022-09-02T20:36:31.872Z,3.28
2022-09-02T20:39:11.119Z,5.78
2022-09-02T20:41:55.268Z,4.25
2022-09-02T20:44:23.756Z,2.80
2022-09-02T20:46:56.707Z,3.25
2022-09-02T20:49:40.449Z,3.10
2022-09-02T20:52:20.721Z,3.25
2022-09-02T20:54:48.664Z,3.28
2022-09-02T20:57:24.610Z,5.53
2022-09-02T21:00:04.202Z,3.47
2022-09-02T21:02:06.525Z,2.85
2022-09-02T21:05:06.098Z,3.25
2022-09-02T21:07:24.846Z,4.72
2022-09-02T21:09:41.095Z,4.97
2022-09-02T21:11:56.579Z,3.78
2022-09-02T21:14:09.950Z,5.70
2022-09-02T21:16:36.435Z,3.15
2022-09-02T21:18:57.396Z,7.03
2022-09-02T21:21:01.985Z,3.70
2022-09-02T21:23:11.169Z,2.42
2022-09-02T21:25:22.622Z,4.28
2022-09-02T21:27:35.498Z,3.22
2022-09-02T21:29:44.284Z,3.25
2022-09-02T21:31:59.630Z,2.28
2022-09-02T21:34:05.699Z,9.45
2022-09-02T21:36:07.735Z,3.70
2022-09-02T21:38:16.510Z,5.03
2022-09-02T21:40:20.198Z,6.50
2022-09-02T21:42:53.873Z,3.60
2022-09-02T21:47:24.769Z,2.80
2022-09-02T21:49:40.873Z,2.38
2022-09-02T21:51:58.076Z,3.20
2022-09-02T21:54:36.711Z,4.20
2022-09-02T21:57:01.042Z,3.00
2022-09-02T21:59:26.972Z,2.50
2022-09-02T22:01:46.373Z,3.03
2022-09-02T22:04:04.426Z,2.75
2022-09-02T22:06:40.980Z,2.72
2022-09-02T22:09:20.910Z,2.42
2022-09-02T22:11:40.400Z,2.60
2022-09-02T22:13:42.444Z,1.60
2022-09-02T22:16:15.326Z,1.52
2022-09-02T22:18:24.790Z,2.60
2022-09-02T22:20:39.178Z,2.28
2022-09-02T22:22:45.589Z,2.35
2022-09-02T22:24:48.056Z,2.00
2022-09-02T22:27:11.974Z,1.95
2022-09-02T22:29:29.096Z,4.25
2022-09-02T22:31:32.486Z,1.80
2022-09-02T22:33:36.851Z,2.80
2022-09-02T22:35:54.396Z,3.03
2022-09-02T22:38:26.459Z,4.25
2022-09-02T22:40:32.534Z,3.78
2022-09-02T22:42:36.709Z,3.83
2022-09-02T22:45:25.047Z,1.42
2022-09-02T22:47:45.714Z,1.77
2022-09-02T22:50:09.908Z,3.13
2022-09-02T22:52:55.008Z,2.80
2022-09-02T22:54:57.088Z,2.05
2022-09-02T22:57:18.634Z,1.55
2022-09-02T22:59:36.846Z,4.22
2022-09-02T23:02:29.141Z,1.88
2022-09-02T23:04:49.258Z,3.92
2022-09-02T23:06:55.138Z,3.72
2022-09-02T23:09:08.482Z,2.97
2022-09-02T23:11:30.588Z,2.95
2022-09-02T23:14:26.637Z,1.67
2022-09-02T23:17:11.147Z,1.92
2022-09-02T23:19:29.355Z,3.08
2022-09-02T23:21:47.244Z,1.98
2022-09-02T23:24:05.223Z,3.72
2022-09-02T23:26:16.731Z,3.75
2022-09-02T23:29:09.834Z,1.25
2022-09-02T23:31:40.297Z,1.63
2022-09-02T23:33:55.282Z,2.65
2022-09-02T23:36:13.169Z,3.03
2022-09-02T23:38:35.967Z,1.40
2022-09-02T23:40:46.490Z,2.35
2022-09-02T23:42:48.491Z,2.22
2022-09-02T23:44:50.506Z,2.45
2022-09-02T23:47:08.479Z,1.05
2022-09-02T23:49:55.296Z,2.83
2022-09-02T23:52:58.964Z,2.60
2022-09-02T23:55:06.867Z,1.80
2022-09-02T23:57:43.180Z,2.95
